KFMY

Page Field Airport

Fort Myers, Florida, USA
METAR KFMY 172053Z 00000KT 10SM BKN050 28/18 A3016 RMK AO2 SLP215 T02780183 55006
Observed Flight Rules
Dec-17 @ 20:53 UTC (44 minutes ago) Visual Flight Rules
Wind Visibility Clouds
Calm 10 miles
  • Broken at 5,000' AGL
Temperatures Readings
Current 28°C / 82°F
Dewpoint 18°C / 64°F
Humidity 55%
Altimeter 30.16" Hg
Pressure 1021.5 hPa
Elevation 4
METAR KFMY 172053Z 00000KT 10SM BKN050 28/18 A3016 RMK AO2 SLP215 T02780183 55006
Observed Flight Rules
Dec-17 @ 20:53 UTC
(44 minutes ago)
VFR
Wind Visibility
Calm 10 miles
Clouds
  • Broken at 5,000' AGL
Temperature Dewpoint
28°C / 82°F 18°C / 64°F
Humidity Altimeter Pressure
55% 30.16" Hg 1021.5 hPa